Time;durP1;ratioP1;P1;durP2;ratioP2;P2;SDS_P1;SDS_P2;PMS_P1;PMS_P2;Temp;Humidity;BMP_temperature;BMP_pressure;BME280_temperature;BME280_humidity;BME280_pressure;Samples;Min_cycle;Max_cycle;Signal;HPM_P1;HPM_P2
2023/10/26 00:00:29;;;;;;;;;;;;;;;7.77;100.00;98967.56;4990705;28;19922;-89
2023/10/26 00:02:58;;;;;;;;;;;;;;;7.83;100.00;98965.59;4986998;28;19922;-88
2023/10/26 00:05:32;;;;;;;;;;;;;;;7.76;100.00;98957.88;4993460;28;19944;-88
2023/10/26 00:08:00;;;;;;;;;;;;;;;7.76;100.00;98954.34;4992813;28;19940;-87
2023/10/26 00:10:33;;;;;;;;;;;;;;;7.77;100.00;98948.63;4992224;28;20420;-87
2023/10/26 00:13:01;;;;;;;;;;;;;;;7.73;100.00;98954.94;4973261;28;19922;-86
2023/10/26 00:15:34;;;;;;;;;;;;;;;7.77;100.00;98950.53;4991039;28;19928;-88
2023/10/26 00:18:02;;;;;;;;;;;;;;;7.74;100.00;98960.06;4994258;28;19926;-88
2023/10/26 00:20:32;;;;;;;;;;;;;;;7.73;100.00;98963.06;4991695;28;19933;-89
2023/10/26 00:23:01;;;;;;;;;;;;;;;7.73;100.00;98955.75;4993277;28;20490;-86
2023/10/26 00:25:29;;;;;;;;;;;;;;;7.72;100.00;98970.41;4991799;28;19925;-87
2023/10/26 00:27:58;;;;;;;;;;;;;;;7.69;100.00;98962.88;4995675;28;19932;-88
2023/10/26 00:30:32;;;;;;;;;;;;;;;7.72;100.00;98965.00;4992994;28;20374;-86
2023/10/26 00:33:00;;;;;;;;;;;;;;;7.77;100.00;98964.88;4992854;28;19925;-87
2023/10/26 00:35:28;;;;;;;;;;;;;;;7.72;100.00;98961.47;4989546;28;19922;-87
2023/10/26 00:38:02;;;;;;;;;;;;;;;7.72;100.00;98956.88;4989602;28;20267;-85
2023/10/26 00:40:30;;;;;;;;;;;;;;;7.72;100.00;98953.34;4990697;28;19929;-91
2023/10/26 00:42:59;;;;;;;;;;;;;;;7.73;100.00;98953.03;4976285;28;21310;-89
2023/10/26 00:45:27;;;;;;;;;;;;;;;7.72;100.00;98953.34;4992776;28;19921;-88
2023/10/26 00:47:55;;;;;;;;;;;;;;;7.72;100.00;98951.44;4994470;28;19929;-87
2023/10/26 00:50:23;;;;;;;;;;;;;;;7.77;100.00;98954.03;4993127;28;19926;-91
2023/10/26 00:52:52;;;;;;;;;;;;;;;7.78;100.00;98954.84;4992887;28;19933;-91
2023/10/26 00:55:22;;;;;;;;;;;;;;;7.77;100.00;98950.53;4976860;28;19929;-92
2023/10/26 00:57:50;;;;;;;;;;;;;;;7.76;100.00;98955.16;4995456;28;19933;-93
2023/10/26 01:00:19;;;;;;;;;;;;;;;7.77;100.00;98950.53;4989089;28;19921;-91
2023/10/26 01:02:47;;;;;;;;;;;;;;;7.74;100.00;98948.44;4988815;28;19922;-90
2023/10/26 01:05:15;;;;;;;;;;;;;;;7.73;100.00;98950.31;4994241;28;20375;-90
2023/10/26 01:07:43;;;;;;;;;;;;;;;7.76;100.00;98943.50;4985355;28;19926;-89
2023/10/26 01:10:11;;;;;;;;;;;;;;;7.71;100.00;98949.84;5000100;28;19922;-92
2023/10/26 01:12:40;;;;;;;;;;;;;;;7.70;100.00;98942.81;4994160;28;19925;-91
2023/10/26 01:15:09;;;;;;;;;;;;;;;7.72;100.00;98937.09;4993964;28;19921;-90
2023/10/26 01:17:37;;;;;;;;;;;;;;;7.73;100.00;98934.06;4982687;28;19921;-92
2023/10/26 01:20:06;;;;;;;;;;;;;;;7.73;100.00;98936.78;4999279;28;20369;-91
2023/10/26 01:22:35;;;;;;;;;;;;;;;7.72;100.00;98937.91;4993877;28;19926;-90
2023/10/26 01:25:04;;;;;;;;;;;;;;;7.74;100.00;98934.91;4993560;28;19921;-89
2023/10/26 01:27:31;;;;;;;;;;;;;;;7.72;100.00;98928.97;4964479;28;19921;-91
2023/10/26 01:29:59;;;;;;;;;;;;;;;7.71;100.00;98936.31;4973386;28;19930;-91
2023/10/26 01:32:27;;;;;;;;;;;;;;;7.63;100.00;98937.81;4993353;28;19925;-90
2023/10/26 01:34:55;;;;;;;;;;;;;;;7.66;100.00;98931.00;4993457;28;19921;-92
2023/10/26 01:37:23;;;;;;;;;;;;;;;7.62;100.00;98927.28;4993084;28;19957;-91
2023/10/26 01:39:53;;;;;;;;;;;;;;;7.63;100.00;98931.59;4985988;28;20599;-88
2023/10/26 01:42:26;;;;;;;;;;;;;;;7.63;100.00;98937.00;4985802;28;19937;-90
2023/10/26 01:44:54;;;;;;;;;;;;;;;7.63;100.00;98924.28;4990571;28;20322;-90
2023/10/26 01:47:22;;;;;;;;;;;;;;;7.61;100.00;98931.91;4993377;28;19922;-90
2023/10/26 01:49:50;;;;;;;;;;;;;;;7.61;100.00;98934.63;4992936;28;19922;-92
2023/10/26 01:52:18;;;;;;;;;;;;;;;7.64;100.00;98928.59;4993036;28;19925;-92
2023/10/26 01:54:46;;;;;;;;;;;;;;;7.70;100.00;98923.84;4991623;28;20039;-92
2023/10/26 01:57:16;;;;;;;;;;;;;;;7.68;100.00;98925.25;4992542;28;19925;-90
2023/10/26 01:59:44;;;;;;;;;;;;;;;7.63;100.00;98932.38;4992202;28;19921;-90
2023/10/26 02:02:12;;;;;;;;;;;;;;;7.69;100.00;98922.25;4992499;28;19925;-90
2023/10/26 02:04:40;;;;;;;;;;;;;;;7.75;100.00;98923.75;4992229;28;19922;-90
2023/10/26 02:07:08;;;;;;;;;;;;;;;7.63;100.00;98923.47;4993489;28;19928;-89
2023/10/26 02:09:36;;;;;;;;;;;;;;;7.64;100.00;98915.06;4972067;28;19921;-90
2023/10/26 02:12:05;;;;;;;;;;;;;;;7.68;100.00;98922.56;4976667;28;20497;-90
2023/10/26 02:14:34;;;;;;;;;;;;;;;7.64;100.00;98920.47;4992829;28;19921;-90
2023/10/26 02:17:02;;;;;;;;;;;;;;;7.65;100.00;98918.53;4991924;28;21337;-90
2023/10/26 02:19:30;;;;;;;;;;;;;;;7.75;100.00;98915.63;4992909;28;19929;-91
2023/10/26 02:22:03;;;;;;;;;;;;;;;7.69;100.00;98916.03;4992249;28;19922;-89
2023/10/26 02:24:31;;;;;;;;;;;;;;;7.63;100.00;98918.06;4973264;28;20382;-92
2023/10/26 02:26:59;;;;;;;;;;;;;;;7.57;100.00;98917.38;4993189;28;19921;-91
2023/10/26 02:29:27;;;;;;;;;;;;;;;7.60;100.00;98924.88;4993236;28;19928;-91
2023/10/26 02:31:57;;;;;;;;;;;;;;;7.60;100.00;98919.47;4984004;28;19926;-88
2023/10/26 02:34:24;;;;;;;;;;;;;;;7.67;100.00;98919.06;4992511;28;19936;-90
2023/10/26 02:36:52;;;;;;;;;;;;;;;7.64;100.00;98927.78;4992409;28;19922;-91
2023/10/26 02:39:20;;;;;;;;;;;;;;;7.60;100.00;98930.28;4975911;28;19929;-90
2023/10/26 02:41:48;;;;;;;;;;;;;;;7.67;100.00;98927.19;4992997;28;20322;-89
2023/10/26 02:44:16;;;;;;;;;;;;;;;7.66;100.00;98923.69;4976347;28;19922;-90
2023/10/26 02:46:44;;;;;;;;;;;;;;;7.69;100.00;98924.97;4973930;28;19928;-90
2023/10/26 02:49:14;;;;;;;;;;;;;;;7.63;100.00;98916.16;4991887;28;19922;-91
2023/10/26 02:51:41;;;;;;;;;;;;;;;7.61;100.00;98921.06;4994556;28;19922;-91
2023/10/26 02:54:10;;;;;;;;;;;;;;;7.56;100.00;98920.38;4991943;28;20374;-91
2023/10/26 02:56:38;;;;;;;;;;;;;;;7.63;100.00;98918.84;4976377;28;19922;-89
2023/10/26 02:59:10;;;;;;;;;;;;;;;7.59;100.00;98917.84;4985549;28;20291;-91
2023/10/26 03:01:38;;;;;;;;;;;;;;;7.69;100.00;98926.88;4992181;28;19928;-90
2023/10/26 03:04:06;;;;;;;;;;;;;;;7.58;100.00;98920.88;4994054;28;19922;-90
2023/10/26 03:06:39;;;;;;;;;;;;;;;7.61;100.00;98920.25;4978760;28;19936;-92
2023/10/26 03:09:08;;;;;;;;;;;;;;;7.58;100.00;98918.97;4992432;28;19922;-90
2023/10/26 03:11:36;;;;;;;;;;;;;;;7.62;100.00;98922.69;4976173;28;19928;-91
2023/10/26 03:14:04;;;;;;;;;;;;;;;7.60;100.00;98919.47;4992784;28;19922;-90
2023/10/26 03:16:33;;;;;;;;;;;;;;;7.55;100.00;98921.47;4991604;28;19929;-91
2023/10/26 03:19:01;;;;;;;;;;;;;;;7.58;100.00;98926.28;4995452;28;19922;-90
2023/10/26 03:21:29;;;;;;;;;;;;;;;7.56;100.00;98915.75;4979367;28;19922;-90
2023/10/26 03:23:58;;;;;;;;;;;;;;;7.58;100.00;98923.56;5001080;28;19921;-91
2023/10/26 03:26:29;;;;;;;;;;;;;;;7.58;100.00;98910.88;4994347;28;19950;-92
2023/10/26 03:28:57;;;;;;;;;;;;;;;7.55;100.00;98918.78;4996044;28;19944;-89
2023/10/26 03:31:25;;;;;;;;;;;;;;;7.58;100.00;98916.28;4996165;28;19925;-89
2023/10/26 03:33:53;;;;;;;;;;;;;;;7.61;100.00;98917.56;4996389;28;19922;-91
2023/10/26 03:36:21;;;;;;;;;;;;;;;7.56;100.00;98915.75;4996193;28;20430;-90
2023/10/26 03:38:50;;;;;;;;;;;;;;;7.56;100.00;98917.69;4986531;28;19922;-91
2023/10/26 03:41:19;;;;;;;;;;;;;;;7.59;100.00;98920.56;4989593;28;19926;-89
2023/10/26 03:43:47;;;;;;;;;;;;;;;7.60;100.00;98908.63;4975693;28;19928;-89
2023/10/26 03:46:20;;;;;;;;;;;;;;;7.60;100.00;98915.97;4995087;28;19922;-88
2023/10/26 03:48:50;;;;;;;;;;;;;;;7.61;100.00;98914.84;4993367;28;19929;-91
2023/10/26 03:51:18;;;;;;;;;;;;;;;7.60;100.00;98913.25;4994794;28;19925;-91
2023/10/26 03:53:46;;;;;;;;;;;;;;;7.65;100.00;98919.38;4990951;28;19933;-90
2023/10/26 03:56:14;;;;;;;;;;;;;;;7.61;100.00;98917.56;4992466;28;19921;-92
2023/10/26 03:58:43;;;;;;;;;;;;;;;7.61;100.00;98921.06;4989214;28;19925;-92
2023/10/26 04:01:11;;;;;;;;;;;;;;;7.61;100.00;98912.97;4995823;28;19922;-90
2023/10/26 04:03:39;;;;;;;;;;;;;;;7.63;100.00;98913.44;4979267;28;19922;-91
2023/10/26 04:06:08;;;;;;;;;;;;;;;7.68;100.00;98917.97;4998198;28;19921;-92
2023/10/26 04:08:36;;;;;;;;;;;;;;;7.70;100.00;98914.94;4992537;28;19929;-91
2023/10/26 04:11:04;;;;;;;;;;;;;;;7.75;100.00;98918.34;4977701;28;19933;-90
2023/10/26 04:13:32;;;;;;;;;;;;;;;7.76;100.00;98917.25;4989839;28;19921;-89
2023/10/26 04:16:02;;;;;;;;;;;;;;;7.77;100.00;98916.13;4978180;28;19921;-92
2023/10/26 04:18:31;;;;;;;;;;;;;;;7.74;100.00;98916.72;4997500;28;19921;-92
2023/10/26 04:20:59;;;;;;;;;;;;;;;7.76;100.00;98916.44;4997376;28;19930;-92
2023/10/26 04:23:27;;;;;;;;;;;;;;;7.70;100.00;98923.84;4992327;28;19922;-91
2023/10/26 04:25:55;;;;;;;;;;;;;;;7.75;100.00;98921.06;4993065;28;20128;-92
2023/10/26 04:28:24;;;;;;;;;;;;;;;7.79;100.00;98919.34;4992487;28;19922;-91
2023/10/26 04:30:54;;;;;;;;;;;;;;;7.78;100.00;98928.56;4983531;28;19929;-92
2023/10/26 04:33:23;;;;;;;;;;;;;;;7.78;100.00;98923.16;4994961;28;19929;-90
2023/10/26 04:35:51;;;;;;;;;;;;;;;7.89;100.00;98926.44;4994112;28;19921;-92
2023/10/26 04:38:19;;;;;;;;;;;;;;;7.82;100.00;98932.25;4993620;28;19921;-91
2023/10/26 04:40:47;;;;;;;;;;;;;;;7.84;100.00;98926.53;5000604;28;20623;-90
2023/10/26 04:43:15;;;;;;;;;;;;;;;7.89;100.00;98928.34;4994884;28;19928;-91
2023/10/26 04:45:43;;;;;;;;;;;;;;;7.93;100.00;98932.06;4999360;28;19922;-92
2023/10/26 04:48:11;;;;;;;;;;;;;;;7.99;100.00;98918.06;4994253;28;19921;-92
2023/10/26 04:50:41;;;;;;;;;;;;;;;7.92;100.00;98927.72;4993640;28;19932;-93
2023/10/26 04:53:09;;;;;;;;;;;;;;;7.89;100.00;98925.66;4970189;28;20294;-91
2023/10/26 04:55:37;;;;;;;;;;;;;;;7.93;100.00;98930.13;4995837;28;19925;-91
2023/10/26 04:58:05;;;;;;;;;;;;;;;7.96;100.00;98928.72;4993839;28;19922;-92
2023/10/26 05:00:33;;;;;;;;;;;;;;;7.96;100.00;98929.53;4991558;28;20374;-93
2023/10/26 05:03:01;;;;;;;;;;;;;;;7.98;100.00;98921.09;4992545;28;19921;-93
2023/10/26 05:05:29;;;;;;;;;;;;;;;7.95;100.00;98927.91;5001189;28;19925;-92
2023/10/26 05:08:04;;;;;;;;;;;;;;;7.99;100.00;98914.56;4971279;28;19929;-94
2023/10/26 05:10:32;;;;;;;;;;;;;;;8.01;100.00;98934.03;4993982;28;20409;-92
2023/10/26 05:13:00;;;;;;;;;;;;;;;8.02;100.00;98924.78;4992323;28;19937;-92
2023/10/26 05:15:28;;;;;;;;;;;;;;;8.05;100.00;98920.66;4975466;28;19929;-91
2023/10/26 05:17:56;;;;;;;;;;;;;;;8.03;100.00;98926.38;4994445;28;19922;-91
2023/10/26 05:20:24;;;;;;;;;;;;;;;8.04;100.00;98933.41;4997938;28;19944;-91
2023/10/26 05:22:51;;;;;;;;;;;;;;;8.02;100.00;98922.06;4999922;28;19926;-91
2023/10/26 05:25:21;;;;;;;;;;;;;;;8.05;100.00;98929.63;4991358;28;20375;-90
2023/10/26 05:27:49;;;;;;;;;;;;;;;8.06;100.00;98924.97;4982516;28;19922;-90
2023/10/26 05:30:17;;;;;;;;;;;;;;;8.07;100.00;98918.47;5006910;28;19925;-90
2023/10/26 05:32:45;;;;;;;;;;;;;;;8.08;100.00;98918.16;4982573;28;19921;-90
2023/10/26 05:35:14;;;;;;;;;;;;;;;8.12;100.00;98919.16;4993395;28;19921;-90
2023/10/26 05:37:41;;;;;;;;;;;;;;;8.11;100.00;98919.47;5001669;28;19928;-91
2023/10/26 05:40:10;;;;;;;;;;;;;;;8.09;100.00;98913.53;4999366;28;19933;-90
2023/10/26 05:42:39;;;;;;;;;;;;;;;8.09;100.00;98922.47;4992519;28;19928;-91
2023/10/26 05:45:08;;;;;;;;;;;;;;;8.14;100.00;98919.63;4991383;28;19932;-90
2023/10/26 05:47:36;;;;;;;;;;;;;;;8.12;100.00;98918.31;4996006;28;19929;-90
2023/10/26 05:50:09;;;;;;;;;;;;;;;8.13;100.00;98918.03;4969926;28;19922;-90
2023/10/26 05:52:42;;;;;;;;;;;;;;;8.13;100.00;98917.22;4994853;28;19929;-90
2023/10/26 05:55:15;;;;;;;;;;;;;;;8.17;100.00;98918.22;4995622;28;19922;-91
2023/10/26 05:57:49;;;;;;;;;;;;;;;8.13;100.00;98918.03;4992061;28;19933;-90
2023/10/26 06:00:18;;;;;;;;;;;;;;;8.12;100.00;98921.84;4975723;28;19936;-90
2023/10/26 06:02:51;;;;;;;;;;;;;;;8.10;100.00;98924.06;4990623;28;19933;-90
2023/10/26 06:05:19;;;;;;;;;;;;;;;8.07;100.00;98916.53;5000519;28;19925;-90
2023/10/26 06:07:52;;;;;;;;;;;;;;;8.10;100.00;98924.06;4987688;28;20291;-90
2023/10/26 06:10:20;;;;;;;;;;;;;;;8.14;100.00;98919.63;5000560;28;19921;-90
2023/10/26 06:12:54;;;;;;;;;;;;;;;8.09;100.00;98919.78;4992763;28;19929;-90
2023/10/26 06:15:22;;;;;;;;;;;;;;;8.11;100.00;98917.53;4991776;28;20306;-90
2023/10/26 06:17:50;;;;;;;;;;;;;;;8.15;100.00;98917.75;4988604;28;19922;-90
2023/10/26 06:20:18;;;;;;;;;;;;;;;8.14;100.00;98922.34;4989424;28;19926;-90
2023/10/26 06:22:46;;;;;;;;;;;;;;;8.15;100.00;98923.94;4989466;28;19926;-90
2023/10/26 06:25:20;;;;;;;;;;;;;;;8.17;100.00;98926.34;5000696;28;19925;-90
2023/10/26 06:27:48;;;;;;;;;;;;;;;8.15;100.00;98921.22;4975179;28;19926;-90
2023/10/26 06:30:18;;;;;;;;;;;;;;;8.16;100.00;98924.72;4975405;28;19929;-90
2023/10/26 06:32:46;;;;;;;;;;;;;;;8.15;100.00;98918.53;4992399;28;19922;-89
2023/10/26 06:35:13;;;;;;;;;;;;;;;8.20;100.00;98919.50;4998622;28;19921;-89
2023/10/26 06:37:41;;;;;;;;;;;;;;;8.20;100.00;98920.31;4993678;28;19921;-90
2023/10/26 06:40:10;;;;;;;;;;;;;;;8.20;100.00;98914.09;4989278;28;20531;-90
2023/10/26 06:42:43;;;;;;;;;;;;;;;8.22;100.00;98918.09;4994898;28;20378;-89
2023/10/26 06:45:11;;;;;;;;;;;;;;;8.21;100.00;98921.91;4979883;28;19922;-89
2023/10/26 06:47:40;;;;;;;;;;;;;;;8.22;100.00;98920.03;4991079;28;19925;-89
2023/10/26 06:50:13;;;;;;;;;;;;;;;8.26;100.00;98916.38;4994082;28;19929;-90
2023/10/26 06:52:41;;;;;;;;;;;;;;;8.28;100.00;98925.00;4993382;28;19922;-89
2023/10/26 06:55:14;;;;;;;;;;;;;;;8.32;100.00;98920.56;4988305;28;19937;-89
2023/10/26 06:57:42;;;;;;;;;;;;;;;8.32;100.00;98928.69;4992552;28;19933;-89
2023/10/26 07:00:11;;;;;;;;;;;;;;;8.33;100.00;98919.44;4988002;28;19921;-89
2023/10/26 07:02:40;;;;;;;;;;;;;;;8.38;100.00;98923.94;4991251;28;19932;-89
2023/10/26 07:05:08;;;;;;;;;;;;;;;8.39;100.00;98928.25;4975554;28;19950;-90
2023/10/26 07:07:37;;;;;;;;;;;;;;;8.40;100.00;98924.44;4991584;28;20374;-89
2023/10/26 07:10:05;;;;;;;;;;;;;;;8.44;100.00;98924.66;4989989;28;19922;-90
2023/10/26 07:12:33;;;;;;;;;;;;;;;8.47;100.00;98934.91;4991127;28;20294;-90
2023/10/26 07:15:01;;;;;;;;;;;;;;;8.47;100.00;98927.56;4997997;28;19921;-85
2023/10/26 07:17:29;;;;;;;;;;;;;;;8.47;100.00;98932.97;4990013;28;19929;-87
2023/10/26 07:19:58;;;;;;;;;;;;;;;8.51;100.00;98933.97;4992479;28;19930;-87
2023/10/26 07:22:26;;;;;;;;;;;;;;;8.57;100.00;98933.84;4985047;28;20660;-85
2023/10/26 07:24:55;;;;;;;;;;;;;;;8.59;100.00;98926.19;4993835;28;19922;-86
2023/10/26 07:27:23;;;;;;;;;;;;;;;8.67;100.00;98925.44;4989310;28;19932;-88
2023/10/26 07:29:54;;;;;;;;;;;;;;;8.72;100.00;98929.94;4990259;28;19948;-90
2023/10/26 07:32:27;;;;;;;;;;;;;;;8.73;100.00;98926.91;4987657;28;19929;-88
2023/10/26 07:34:56;;;;;;;;;;;;;;;8.71;100.00;98933.75;4990787;28;19929;-90
2023/10/26 07:37:25;;;;;;;;;;;;;;;8.70;100.00;98932.16;4989571;28;19929;-87
2023/10/26 07:39:53;;;;;;;;;;;;;;;8.71;100.00;98937.25;4989692;28;19929;-89
2023/10/26 07:42:21;;;;;;;;;;;;;;;8.74;100.00;98941.28;4985799;28;19929;-88
2023/10/26 07:44:52;;;;;;;;;;;;;;;8.74;100.00;98943.97;4985382;28;19948;-89
2023/10/26 07:47:20;;;;;;;;;;;;;;;8.74;100.00;98942.09;4989969;28;20401;-89
2023/10/26 07:49:48;;;;;;;;;;;;;;;8.76;100.00;98939.84;4988443;28;20293;-86
2023/10/26 07:52:16;;;;;;;;;;;;;;;8.76;100.00;98939.06;4990124;28;19922;-90
2023/10/26 07:54:45;;;;;;;;;;;;;;;8.73;100.00;98951.34;4984650;28;20286;-91
2023/10/26 07:57:13;;;;;;;;;;;;;;;8.75;100.00;98940.16;4985985;28;19922;-90
2023/10/26 07:59:41;;;;;;;;;;;;;;;8.75;100.00;98943.66;4991777;28;19933;-89
2023/10/26 08:02:09;;;;;;;;;;;;;;;8.73;100.00;98951.34;4998780;28;19933;-87
2023/10/26 08:04:37;;;;;;;;;;;;;;;8.72;100.00;98949.72;4945453;28;19922;-89
2023/10/26 08:07:05;;;;;;;;;;;;;;;8.67;100.00;98958.78;4985016;28;19952;-87
2023/10/26 08:09:33;;;;;;;;;;;;;;;8.72;100.00;98963.28;4972223;28;19937;-90
2023/10/26 08:12:03;;;;;;;;;;;;;;;8.68;100.00;98960.38;4971790;28;19930;-90
2023/10/26 08:14:31;;;;;;;;;;;;;;;8.68;100.00;98968.50;4971724;28;19930;-90
2023/10/26 08:16:59;;;;;;;;;;;;;;;8.67;100.00;98966.94;4972598;28;19930;-90
2023/10/26 08:19:28;;;;;;;;;;;;;;;8.61;100.00;98965.44;4962322;28;19937;-87
2023/10/26 08:21:56;;;;;;;;;;;;;;;8.66;100.00;98964.53;4965778;28;20743;-89
2023/10/26 08:24:24;;;;;;;;;;;;;;;8.68;100.00;98967.72;4970066;28;19929;-89
2023/10/26 08:26:53;;;;;;;;;;;;;;;8.66;100.00;98959.91;4968766;28;19933;-88
2023/10/26 08:29:24;;;;;;;;;;;;;;;8.64;100.00;98972.16;4972561;28;19922;-90
2023/10/26 08:31:52;;;;;;;;;;;;;;;8.67;100.00;98975.06;4977391;28;19933;-88
2023/10/26 08:34:20;;;;;;;;;;;;;;;8.70;100.00;98972.84;4971946;28;20342;-90
2023/10/26 08:36:48;;;;;;;;;;;;;;;8.66;100.00;98978.09;4956419;28;20441;-89
2023/10/26 08:39:21;;;;;;;;;;;;;;;8.68;100.00;98976.66;4975316;28;20528;-88
2023/10/26 08:41:51;;;;;;;;;;;;;;;8.76;100.00;98971.63;4975248;28;19937;-90
2023/10/26 08:44:20;;;;;;;;;;;;;;;8.77;100.00;98973.19;4972320;28;19930;-88
2023/10/26 08:46:49;;;;;;;;;;;;;;;8.79;100.00;98982.63;4957796;28;19940;-88
2023/10/26 08:49:17;;;;;;;;;;;;;;;8.75;100.00;98987.06;4980320;28;19922;-88
2023/10/26 08:51:51;;;;;;;;;;;;;;;8.82;100.00;98990.16;4975510;28;19929;-88
2023/10/26 08:54:19;;;;;;;;;;;;;;;8.92;100.00;98989.09;4973749;28;20952;-86
2023/10/26 08:56:47;;;;;;;;;;;;;;;8.88;100.00;98985.41;4959706;28;19941;-86
2023/10/26 08:59:15;;;;;;;;;;;;;;;8.97;100.00;98985.44;4972390;28;19941;-86
2023/10/26 09:01:45;;;;;;;;;;;;;;;8.93;100.00;98990.69;4969959;28;19940;-87
2023/10/26 09:04:15;;;;;;;;;;;;;;;8.94;100.00;98992.28;4945127;28;19929;-89
2023/10/26 09:06:49;;;;;;;;;;;;;;;8.95;100.00;98999.34;4961587;28;19968;-85
2023/10/26 09:09:17;;;;;;;;;;;;;;;8.95;100.00;99006.66;4976389;28;19931;-90
2023/10/26 09:11:50;;;;;;;;;;;;;;;8.89;100.00;98999.75;4972222;28;19930;-86
2023/10/26 09:14:23;;;;;;;;;;;;;;;8.97;100.00;98999.81;4969448;28;20802;-87
2023/10/26 09:16:52;;;;;;;;;;;;;;;9.00;100.00;99003.81;4971449;28;19932;-89
2023/10/26 09:19:21;;;;;;;;;;;;;;;9.05;100.00;99002.91;4970408;28;19929;-84
2023/10/26 09:21:56;;;;;;;;;;;;;;;9.10;100.00;99002.75;4975180;28;19928;-88
2023/10/26 09:24:28;;;;;;;;;;;;;;;9.07;100.00;99006.09;4974629;28;20686;-85
2023/10/26 09:26:59;;;;;;;;;;;;;;;9.18;100.00;99007.44;4967571;28;19991;-87
2023/10/26 09:29:37;;;;;;;;;;;;;;;9.22;100.00;99007.63;4971576;28;19930;-87
2023/10/26 09:32:05;;;;;;;;;;;;;;;9.30;100.00;99010.38;4971277;28;19929;-87
2023/10/26 09:34:41;;;;;;;;;;;;;;;9.26;100.00;99011.31;4973447;28;19929;-90
2023/10/26 09:37:13;;;;;;;;;;;;;;;9.32;100.00;99007.34;4973241;28;19932;-87
2023/10/26 09:39:48;;;;;;;;;;;;;;;9.34;100.00;99011.34;4978698;28;20309;-86
2023/10/26 09:42:17;;;;;;;;;;;;;;;9.31;100.00;99005.75;4973233;28;19932;-87
2023/10/26 09:44:45;;;;;;;;;;;;;;;9.28;100.00;99009.88;4971352;28;19930;-87
2023/10/26 09:47:13;;;;;;;;;;;;;;;9.32;100.00;99010.88;4969891;28;20655;-88
2023/10/26 09:49:42;;;;;;;;;;;;;;;9.25;100.00;99009.69;4951361;28;19941;-87
2023/10/26 09:52:10;;;;;;;;;;;;;;;9.41;100.00;99004.66;4971844;28;19937;-89
2023/10/26 09:54:40;;;;;;;;;;;;;;;9.50;100.00;99005.50;4955011;28;19937;-86
2023/10/26 09:57:11;;;;;;;;;;;;;;;9.43;100.00;99016.00;4969956;28;19930;-88
2023/10/26 09:59:39;;;;;;;;;;;;;;;9.40;100.00;99012.00;4969769;28;19929;-86
2023/10/26 10:02:13;;;;;;;;;;;;;;;9.41;100.00;99010.91;4970504;28;19929;-92
2023/10/26 10:04:48;;;;;;;;;;;;;;;9.46;100.00;99013.47;4965123;28;19933;-87
2023/10/26 10:07:42;;;;;;;;;;;;;;;9.50;100.00;99000.88;4968214;28;20390;-86
2023/10/26 10:10:11;;;;;;;;;;;;;;;9.51;100.00;99007.09;4973224;28;20386;-87
2023/10/26 10:12:39;;;;;;;;;;;;;;;9.51;100.00;99009.81;4974584;28;19930;-86
2023/10/26 10:15:09;;;;;;;;;;;;;;;9.45;100.00;99005.66;4974735;28;20977;-88
2023/10/26 10:17:59;;;;;;;;;;;;;;;9.49;100.00;99004.69;4954355;28;19937;-89
2023/10/26 10:20:29;;;;;;;;;;;;;;;9.50;100.00;98998.16;4963964;28;19936;-89
2023/10/26 10:22:58;;;;;;;;;;;;;;;9.59;100.00;99008.25;4972271;28;19921;-89
2023/10/26 10:25:50;;;;;;;;;;;;;;;9.60;100.00;99001.69;4958966;28;19937;-87
2023/10/26 10:28:18;;;;;;;;;;;;;;;9.66;100.00;98995.81;4969688;28;19925;-90
2023/10/26 10:30:55;;;;;;;;;;;;;;;9.67;100.00;98997.41;4971017;28;19926;-90
2023/10/26 10:33:24;;;;;;;;;;;;;;;9.61;100.00;98993.25;4968420;28;19929;-89
2023/10/26 10:36:00;;;;;;;;;;;;;;;9.62;100.00;98997.53;4952510;28;20177;-90
2023/10/26 10:38:28;;;;;;;;;;;;;;;9.63;100.00;99003.78;4950505;28;19930;-86
2023/10/26 10:41:10;;;;;;;;;;;;;;;9.62;100.00;98997.53;4967167;28;19930;-88
2023/10/26 10:43:40;;;;;;;;;;;;;;;9.64;100.00;99006.19;4967705;28;20484;-89
2023/10/26 10:46:12;;;;;;;;;;;;;;;9.68;100.00;98998.19;4951856;28;19940;-89
2023/10/26 10:48:56;;;;;;;;;;;;;;;9.69;100.00;99000.63;4966888;28;20760;-89
2023/10/26 10:51:29;;;;;;;;;;;;;;;9.66;100.00;98995.00;4955027;28;19930;-91
2023/10/26 10:54:05;;;;;;;;;;;;;;;9.69;100.00;98997.09;4972148;28;19929;-92
2023/10/26 10:56:36;;;;;;;;;;;;;;;9.73;100.00;99000.00;4973043;28;19930;-91
2023/10/26 10:59:15;;;;;;;;;;;;;;;9.66;100.00;98995.00;4970479;28;20499;-91
2023/10/26 11:01:44;;;;;;;;;;;;;;;9.64;100.00;98992.63;4970358;28;19945;-91
2023/10/26 11:04:13;;;;;;;;;;;;;;;9.69;100.00;98991.66;4945244;28;19964;-91
2023/10/26 11:06:52;;;;;;;;;;;;;;;9.69;100.00;98988.94;4965526;28;20755;-92
2023/10/26 11:09:26;;;;;;;;;;;;;;;9.61;100.00;98985.09;4969525;28;19930;-92
2023/10/26 11:11:55;;;;;;;;;;;;;;;9.65;100.00;98994.22;4969764;28;19936;-92
2023/10/26 11:14:23;;;;;;;;;;;;;;;9.69;100.00;98994.38;4974232;28;20970;-92
2023/10/26 11:16:52;;;;;;;;;;;;;;;9.71;100.00;98997.59;4954030;28;19930;-91
2023/10/26 11:19:24;;;;;;;;;;;;;;;9.69;100.00;98997.09;4959366;28;20924;-92
2023/10/26 11:22:09;;;;;;;;;;;;;;;9.60;100.00;99002.50;4975357;28;19930;-92
2023/10/26 11:24:38;;;;;;;;;;;;;;;9.63;100.00;98996.44;4974819;28;19929;-91
2023/10/26 11:27:07;;;;;;;;;;;;;;;9.62;100.00;98989.41;4962700;28;20491;-92
2023/10/26 11:29:36;;;;;;;;;;;;;;;9.64;100.00;98989.91;4961781;28;20461;-93
2023/10/26 11:32:17;;;;;;;;;;;;;;;9.63;100.00;98998.38;4979662;28;19929;-90
2023/10/26 11:35:00;;;;;;;;;;;;;;;9.59;100.00;98998.19;4955631;28;19934;-91
2023/10/26 11:37:34;;;;;;;;;;;;;;;9.61;100.00;98993.25;4965314;28;19937;-92
2023/10/26 11:40:10;;;;;;;;;;;;;;;9.64;100.00;98999.94;4982526;28;19937;-91
2023/10/26 11:42:52;;;;;;;;;;;;;;;9.52;100.00;98997.84;4976272;28;19937;-92
2023/10/26 11:45:25;;;;;;;;;;;;;;;9.49;100.00;98999.25;4974923;28;19932;-92
2023/10/26 11:48:01;;;;;;;;;;;;;;;9.47;100.00;98990.66;4954399;28;19926;-92
2023/10/26 11:50:35;;;;;;;;;;;;;;;9.48;100.00;98986.78;4979161;28;20600;-93
2023/10/26 11:53:09;;;;;;;;;;;;;;;9.50;100.00;98997.34;4976282;28;19940;-89
2023/10/26 11:55:37;;;;;;;;;;;;;;;9.58;100.00;98995.78;4969063;28;19937;-93
2023/10/26 11:58:05;;;;;;;;;;;;;;;9.60;100.00;99004.41;4969070;28;19930;-93
2023/10/26 12:00:34;;;;;;;;;;;;;;;9.64;100.00;98999.94;4971081;28;19930;-91
2023/10/26 12:03:02;;;;;;;;;;;;;;;9.75;100.00;99000.47;4973853;28;20651;-89
2023/10/26 12:05:31;;;;;;;;;;;;;;;9.75;100.00;99004.00;4946663;28;19929;-89
2023/10/26 12:07:59;;;;;;;;;;;;;;;9.70;100.00;98998.69;4970444;28;19941;-87
2023/10/26 12:10:28;;;;;;;;;;;;;;;9.82;100.00;98996.19;4976262;28;19929;-91
2023/10/26 12:12:58;;;;;;;;;;;;;;;9.90;100.00;99004.66;4961327;28;19929;-89
2023/10/26 12:15:27;;;;;;;;;;;;;;;9.89;100.00;98993.00;4968921;28;20578;-87
2023/10/26 12:18:00;;;;;;;;;;;;;;;9.91;100.00;98996.19;4972924;28;19941;-94
2023/10/26 12:24:26;;;;;;;;;;;;;;;9.71;100.00;99013.88;4929247;28;20441;-92
2023/10/26 12:31:17;;;;;;;;;;;;;;;9.65;100.00;99015.13;4912618;29;19931;-90
2023/10/26 12:34:48;;;;;;;;;;;;;;;9.61;100.00;99011.44;4859096;29;19931;-91
2023/10/26 12:37:31;;;;;;;;;;;;;;;9.66;100.00;99005.88;4860712;29;19942;-91
2023/10/26 12:39:59;;;;;;;;;;;;;;;9.57;100.00;99008.56;4914252;29;19930;-90
2023/10/26 12:42:27;;;;;;;;;;;;;;;9.59;100.00;99000.09;4913713;29;19931;-92
2023/10/26 12:44:55;;;;;;;;;;;;;;;9.63;100.00;98998.38;4901093;29;20035;-90
2023/10/26 12:47:23;;;;;;;;;;;;;;;9.63;100.00;98996.44;4912933;29;19930;-90
2023/10/26 12:49:53;;;;;;;;;;;;;;;9.70;100.00;98991.34;4919230;28;19931;-88
2023/10/26 12:52:21;;;;;;;;;;;;;;;9.74;100.00;98991.53;4939058;28;20626;-89
2023/10/26 12:54:53;;;;;;;;;;;;;;;9.83;100.00;98991.53;4973021;28;19937;-88
2023/10/26 12:57:21;;;;;;;;;;;;;;;9.90;100.00;98986.44;4972484;28;19929;-88
2023/10/26 12:59:56;;;;;;;;;;;;;;;9.86;100.00;98982.78;4953339;28;19941;-89
2023/10/26 13:02:31;;;;;;;;;;;;;;;9.93;100.00;98985.81;4951697;28;20286;-90
2023/10/26 13:05:00;;;;;;;;;;;;;;;10.00;100.00;98979.91;4932316;28;19930;-89
2023/10/26 13:07:31;;;;;;;;;;;;;;;9.98;100.00;98971.28;4965463;28;19929;-91
2023/10/26 13:09:59;;;;;;;;;;;;;;;10.00;100.00;98978.00;4974710;28;19921;-87